createdAt,value
2022-12-20T00:00:24.370Z,893.00
2022-12-20T00:01:24.440Z,912.00
2022-12-20T00:02:24.409Z,892.00
2022-12-20T00:03:24.371Z,898.00
2022-12-20T00:04:24.497Z,906.00
2022-12-20T00:05:23.982Z,889.00
2022-12-20T00:06:23.891Z,898.00
2022-12-20T00:07:23.807Z,891.00
2022-12-20T00:08:23.711Z,901.00
2022-12-20T00:09:23.601Z,911.00
2022-12-20T00:10:23.918Z,898.00
2022-12-20T00:11:23.936Z,919.00
2022-12-20T00:12:23.406Z,905.00
2022-12-20T00:13:23.321Z,935.00
2022-12-20T00:14:23.251Z,922.00
2022-12-20T00:15:23.145Z,924.00
2022-12-20T00:16:23.046Z,918.00
2022-12-20T00:17:22.985Z,914.00
2022-12-20T00:18:22.936Z,920.00
2022-12-20T00:19:24.476Z,927.00
2022-12-20T00:20:24.479Z,918.00
2022-12-20T00:21:22.682Z,924.00
2022-12-20T00:22:22.576Z,917.00
2022-12-20T00:23:22.458Z,927.00
2022-12-20T00:24:26.118Z,935.00
2022-12-20T00:25:23.007Z,936.00
2022-12-20T00:26:22.497Z,936.00
2022-12-20T00:27:22.485Z,937.00
2022-12-20T00:28:22.510Z,938.00
2022-12-20T00:29:22.528Z,941.00
2022-12-20T00:30:22.011Z,934.00
2022-12-20T00:31:21.976Z,944.00
2022-12-20T00:32:21.818Z,948.00
2022-12-20T00:33:21.727Z,937.00
2022-12-20T00:34:21.630Z,946.00
2022-12-20T00:35:22.025Z,946.00
2022-12-20T00:36:21.517Z,941.00
2022-12-20T00:37:21.568Z,951.00
2022-12-20T00:38:21.337Z,939.00
2022-12-20T00:39:21.249Z,958.00
2022-12-20T00:40:21.166Z,955.00
2022-12-20T00:41:22.996Z,959.00
2022-12-20T00:42:21.071Z,967.00
2022-12-20T00:43:20.978Z,952.00
2022-12-20T00:44:20.856Z,951.00
2022-12-20T00:45:20.787Z,957.00
2022-12-20T00:46:21.528Z,958.00
2022-12-20T00:47:20.779Z,950.00
2022-12-20T00:48:20.620Z,964.00
2022-12-20T00:49:20.521Z,964.00
2022-12-20T00:50:20.408Z,965.00
2022-12-20T00:51:20.291Z,963.00
2022-12-20T00:52:20.535Z,965.00
2022-12-20T00:53:26.202Z,963.00
2022-12-20T00:54:21.339Z,964.00
2022-12-20T00:55:20.531Z,957.00
2022-12-20T00:56:20.539Z,966.00
2022-12-20T00:57:20.532Z,974.00
2022-12-20T00:58:20.049Z,971.00
2022-12-20T00:59:19.965Z,970.00
2022-12-20T01:00:19.856Z,979.00
2022-12-20T01:01:19.829Z,979.00
2022-12-20T01:02:20.175Z,974.00
2022-12-20T01:03:21.660Z,975.00
2022-12-20T01:04:21.501Z,982.00
2022-12-20T01:05:19.571Z,983.00
2022-12-20T01:06:19.500Z,982.00
2022-12-20T01:07:19.394Z,980.00
2022-12-20T01:08:19.275Z,982.00
2022-12-20T01:09:20.025Z,984.00
2022-12-20T01:10:19.503Z,988.00
2022-12-20T01:11:19.507Z,978.00
2022-12-20T01:12:18.998Z,979.00
2022-12-20T01:13:18.927Z,983.00
2022-12-20T01:14:18.829Z,985.00
2022-12-20T01:15:18.613Z,980.00
2022-12-20T01:16:18.629Z,997.00
2022-12-20T01:17:19.057Z,981.00
2022-12-20T01:18:18.528Z,1003.00
2022-12-20T01:19:18.452Z,989.00
2022-12-20T01:20:18.343Z,986.00
2022-12-20T01:21:18.268Z,994.00
2022-12-20T01:22:18.139Z,987.00
2022-12-20T01:23:18.041Z,991.00
2022-12-20T01:24:18.013Z,1000.00
2022-12-20T01:25:18.055Z,1003.00
2022-12-20T01:26:21.054Z,1012.00
2022-12-20T01:27:19.537Z,997.00
2022-12-20T01:28:19.537Z,997.00
2022-12-20T01:29:17.582Z,998.00
2022-12-20T01:30:17.498Z,999.00
2022-12-20T01:31:17.468Z,990.00
2022-12-20T01:32:17.391Z,988.00
2022-12-20T01:33:17.212Z,1006.00
2022-12-20T01:34:17.285Z,1000.00
2022-12-20T01:35:17.508Z,993.00
2022-12-20T01:36:17.013Z,992.00
2022-12-20T01:37:17.014Z,1011.00
2022-12-20T01:38:16.839Z,1000.00
2022-12-20T01:39:16.758Z,1005.00
2022-12-20T01:40:16.632Z,1008.00
2022-12-20T01:41:16.637Z,1005.00
2022-12-20T01:42:16.661Z,1010.00
2022-12-20T01:43:16.644Z,999.00
2022-12-20T01:44:16.651Z,1005.00
2022-12-20T01:45:16.554Z,1012.00
2022-12-20T01:46:16.628Z,1005.00
2022-12-20T01:47:16.156Z,1005.00
2022-12-20T01:48:15.969Z,1006.00
2022-12-20T01:49:15.879Z,1005.00
2022-12-20T01:50:17.510Z,1009.00
2022-12-20T01:51:17.563Z,1008.00
2022-12-20T01:52:17.540Z,1014.00
2022-12-20T01:53:15.687Z,1013.00
2022-12-20T01:54:15.487Z,1004.00
2022-12-20T01:55:15.496Z,1018.00
2022-12-20T01:56:15.331Z,1014.00
2022-12-20T01:57:15.330Z,1005.00
2022-12-20T01:58:15.220Z,1002.00
2022-12-20T01:59:15.548Z,1008.00
2022-12-20T02:00:15.020Z,1013.00
2022-12-20T02:01:15.105Z,1022.00
2022-12-20T02:02:14.947Z,1001.00
2022-12-20T02:03:14.806Z,1016.00
2022-12-20T02:04:14.641Z,1025.00
2022-12-20T02:05:14.538Z,1012.00
2022-12-20T02:06:14.454Z,1016.00
2022-12-20T02:07:14.366Z,1017.00
2022-12-20T02:08:14.286Z,1012.00
2022-12-20T02:09:14.160Z,1015.00
2022-12-20T02:10:14.055Z,1019.00
2022-12-20T02:11:13.965Z,1022.00
2022-12-20T02:12:14.106Z,1026.00
2022-12-20T02:13:17.315Z,1007.00
2022-12-20T02:14:15.553Z,1008.00
2022-12-20T02:15:15.669Z,1009.00
2022-12-20T02:16:13.723Z,1009.00
2022-12-20T02:17:13.594Z,1012.00
2022-12-20T02:18:13.515Z,1015.00
2022-12-20T02:19:13.396Z,1022.00
2022-12-20T02:20:13.326Z,1016.00
2022-12-20T02:21:13.240Z,1020.00
2022-12-20T02:22:13.551Z,1011.00
2022-12-20T02:23:13.557Z,1017.00
2022-12-20T02:24:13.049Z,1014.00
2022-12-20T02:25:12.936Z,1016.00
2022-12-20T02:26:12.837Z,1029.00
2022-12-20T02:27:12.745Z,1029.00
2022-12-20T02:28:12.676Z,1020.00
2022-12-20T02:29:12.570Z,1015.00
2022-12-20T02:30:12.444Z,1014.00
2022-12-20T02:31:12.374Z,1028.00
2022-12-20T02:32:12.328Z,1023.00
2022-12-20T02:33:12.195Z,1020.00
2022-12-20T02:34:12.070Z,1035.00
2022-12-20T02:35:12.090Z,1028.00
2022-12-20T02:36:12.101Z,1028.00
2022-12-20T02:37:15.073Z,1028.00
2022-12-20T02:38:13.556Z,1040.00
2022-12-20T02:39:13.555Z,1041.00
2022-12-20T02:40:11.624Z,1042.00
2022-12-20T02:41:11.520Z,1031.00
2022-12-20T02:42:11.418Z,1034.00
2022-12-20T02:43:11.325Z,1033.00
2022-12-20T02:44:11.236Z,1037.00
2022-12-20T02:45:11.143Z,1032.00
2022-12-20T02:46:11.100Z,1028.00
2022-12-20T02:47:11.019Z,1011.00
2022-12-20T02:48:11.106Z,1013.00
2022-12-20T02:49:11.062Z,1016.00
2022-12-20T02:50:11.041Z,1022.00
2022-12-20T02:51:11.049Z,1034.00
2022-12-20T02:52:10.546Z,1044.00
2022-12-20T02:53:10.464Z,1029.00
2022-12-20T02:54:10.379Z,1040.00
2022-12-20T02:55:10.274Z,1041.00
2022-12-20T02:56:10.207Z,1030.00
2022-12-20T02:57:10.115Z,1053.00
2022-12-20T02:58:09.986Z,1035.00
2022-12-20T02:59:09.875Z,1037.00
2022-12-20T03:00:10.089Z,1038.00
2022-12-20T03:01:10.177Z,1037.00
2022-12-20T03:02:11.760Z,1039.00
2022-12-20T03:03:09.657Z,1048.00
2022-12-20T03:04:11.026Z,1049.00
2022-12-20T03:05:11.044Z,1046.00
2022-12-20T03:06:11.055Z,1035.00
2022-12-20T03:07:10.030Z,1045.00
2022-12-20T03:08:10.035Z,1053.00
2022-12-20T03:09:09.021Z,1052.00
2022-12-20T03:10:08.928Z,1039.00
2022-12-20T03:11:08.835Z,1037.00
2022-12-20T03:12:08.746Z,1058.00
2022-12-20T03:13:08.669Z,1052.00
2022-12-20T03:14:08.568Z,1052.00
2022-12-20T03:15:08.449Z,1047.00
2022-12-20T03:16:08.364Z,1043.00
2022-12-20T03:17:08.419Z,1032.00
2022-12-20T03:18:08.195Z,1052.00
2022-12-20T03:19:08.059Z,1049.00
2022-12-20T03:20:08.090Z,1041.00
2022-12-20T03:21:08.106Z,1036.00
2022-12-20T03:22:08.119Z,1028.00
2022-12-20T03:23:08.116Z,1047.00
2022-12-20T03:24:08.112Z,1040.00
2022-12-20T03:25:07.610Z,1037.00
2022-12-20T03:26:07.624Z,1048.00
2022-12-20T03:27:09.075Z,1051.00
2022-12-20T03:28:07.321Z,1048.00
2022-12-20T03:29:07.234Z,1045.00
2022-12-20T03:30:07.160Z,1050.00
2022-12-20T03:31:07.104Z,1044.00
2022-12-20T03:32:06.919Z,1056.00
2022-12-20T03:33:06.832Z,1054.00
2022-12-20T03:34:06.758Z,1045.00
2022-12-20T03:35:07.245Z,1039.00
2022-12-20T03:36:06.535Z,1034.00
2022-12-20T03:37:06.439Z,1039.00
2022-12-20T03:38:06.355Z,1028.00
2022-12-20T03:39:06.260Z,1043.00
2022-12-20T03:41:06.055Z,1052.00
2022-12-20T03:42:05.959Z,1043.00
2022-12-20T03:46:06.238Z,1042.00
2022-12-20T03:47:05.615Z,1040.00
2022-12-20T03:48:05.624Z,1031.00
2022-12-20T03:49:08.594Z,1019.00
2022-12-20T03:50:05.315Z,1044.00
2022-12-20T03:51:05.239Z,1027.00
2022-12-20T03:52:05.129Z,1035.00
2022-12-20T03:53:05.007Z,1038.00
2022-12-20T03:54:04.918Z,1039.00
2022-12-20T03:55:04.827Z,1040.00
2022-12-20T03:59:04.440Z,1027.00
2022-12-20T04:00:05.075Z,1024.00
2022-12-20T04:01:04.603Z,1022.00
2022-12-20T04:02:04.684Z,1020.00
2022-12-20T04:03:04.183Z,1022.00
2022-12-20T04:04:04.125Z,1026.00
2022-12-20T04:05:04.095Z,1014.00
2022-12-20T04:06:04.096Z,1005.00
2022-12-20T04:07:03.567Z,997.00
2022-12-20T04:08:03.475Z,1000.00
2022-12-20T04:09:03.406Z,1009.00
2022-12-20T04:10:03.333Z,1002.00
2022-12-20T04:11:03.186Z,1004.00
2022-12-20T04:12:03.110Z,1001.00
2022-12-20T04:13:02.996Z,991.00
2022-12-20T04:18:02.515Z,977.00
2022-12-20T04:19:02.435Z,970.00
2022-12-20T04:20:19.774Z,961.00
2022-12-20T04:21:02.245Z,967.00
2022-12-20T04:22:05.746Z,972.00
2022-12-20T04:23:02.050Z,964.00
2022-12-20T04:24:03.367Z,969.00
2022-12-20T04:25:02.567Z,1018.00
2022-12-20T04:26:02.072Z,1000.00
2022-12-20T04:27:02.067Z,941.00
2022-12-20T04:28:01.565Z,957.00
2022-12-20T04:29:01.623Z,953.00
2022-12-20T04:30:01.581Z,944.00
2022-12-20T04:31:01.610Z,934.00
2022-12-20T04:32:01.114Z,939.00
2022-12-20T04:33:00.992Z,948.00
2022-12-20T04:34:00.918Z,927.00
2022-12-20T04:35:00.809Z,919.00
2022-12-20T04:36:00.705Z,930.00
2022-12-20T04:37:00.603Z,919.00
2022-12-20T04:38:00.523Z,924.00
2022-12-20T04:39:01.037Z,910.00
2022-12-20T04:40:00.641Z,925.00
2022-12-20T04:41:03.619Z,927.00
2022-12-20T04:42:00.119Z,927.00
2022-12-20T04:43:00.128Z,911.00
2022-12-20T04:44:00.159Z,900.00
2022-12-20T04:44:59.762Z,921.00
2022-12-20T04:45:59.713Z,919.00
2022-12-20T04:46:59.631Z,919.00
2022-12-20T04:48:14.777Z,905.00
2022-12-20T04:49:00.635Z,906.00
2022-12-20T04:49:59.251Z,907.00
2022-12-20T04:51:00.111Z,908.00
2022-12-20T04:51:59.587Z,901.00
2022-12-20T04:52:59.614Z,901.00
2022-12-20T04:53:58.772Z,908.00
2022-12-20T04:54:58.671Z,911.00
2022-12-20T04:55:58.609Z,901.00
2022-12-20T04:56:58.479Z,895.00
2022-12-20T04:58:03.608Z,898.00
2022-12-20T04:58:59.653Z,899.00
2022-12-20T04:59:58.202Z,899.00
2022-12-20T05:00:58.855Z,893.00
2022-12-20T05:01:58.194Z,889.00
2022-12-20T05:02:58.296Z,901.00
2022-12-20T05:03:58.197Z,893.00
2022-12-20T05:04:58.158Z,888.00
2022-12-20T05:05:57.652Z,877.00
2022-12-20T05:06:57.416Z,894.00
2022-12-20T05:07:57.343Z,880.00
2022-12-20T05:08:57.247Z,895.00
2022-12-20T05:09:57.164Z,906.00
2022-12-20T05:10:57.041Z,880.00
2022-12-20T05:11:56.962Z,884.00
2022-12-20T05:12:56.852Z,883.00
2022-12-20T05:13:58.599Z,870.00
2022-12-20T05:14:58.602Z,873.00
2022-12-20T05:15:57.670Z,885.00
2022-12-20T05:16:56.681Z,862.00
2022-12-20T05:17:57.805Z,879.00
2022-12-20T05:18:57.087Z,875.00
2022-12-20T05:19:56.214Z,886.00
2022-12-20T05:20:56.083Z,868.00
2022-12-20T05:21:56.001Z,873.00
2022-12-20T05:22:55.895Z,867.00
2022-12-20T05:23:55.798Z,867.00
2022-12-20T05:24:55.734Z,865.00
2022-12-20T05:25:55.629Z,858.00
2022-12-20T05:26:55.646Z,860.00
2022-12-20T05:27:55.648Z,850.00
2022-12-20T05:28:55.228Z,865.00
2022-12-20T05:29:55.133Z,858.00
2022-12-20T05:30:55.048Z,855.00
2022-12-20T05:31:54.880Z,846.00
2022-12-20T05:32:54.823Z,854.00
2022-12-20T05:33:54.757Z,853.00
2022-12-20T05:34:54.530Z,848.00
2022-12-20T05:35:54.638Z,858.00
2022-12-20T05:36:54.650Z,841.00
2022-12-20T05:37:54.688Z,841.00
2022-12-20T05:38:58.187Z,847.00
2022-12-20T05:39:55.089Z,847.00
2022-12-20T05:40:53.961Z,848.00
2022-12-20T05:41:53.890Z,839.00
2022-12-20T05:42:55.634Z,849.00
2022-12-20T05:43:54.616Z,837.00
2022-12-20T05:44:55.136Z,848.00
2022-12-20T05:45:54.120Z,855.00
2022-12-20T05:46:54.195Z,841.00
2022-12-20T05:47:53.217Z,841.00
2022-12-20T05:48:53.103Z,836.00
2022-12-20T05:49:52.996Z,838.00
2022-12-20T05:50:52.903Z,838.00
2022-12-20T05:51:52.822Z,870.00
2022-12-20T15:40:56.003Z,500.00
2022-12-20T15:41:55.832Z,500.00
2022-12-20T15:42:55.816Z,500.00
2022-12-20T15:43:55.785Z,500.00
2022-12-20T17:09:16.047Z,519.00
2022-12-20T17:19:54.963Z,524.00
2022-12-20T17:20:54.949Z,526.00
2022-12-20T17:23:42.525Z,500.00
2022-12-20T17:24:42.515Z,500.00
2022-12-20T17:25:43.029Z,500.00
2022-12-20T17:26:42.595Z,500.00
2022-12-20T17:27:42.582Z,500.00
2022-12-20T17:28:42.575Z,500.00
2022-12-20T17:29:42.571Z,500.00
2022-12-20T17:30:42.567Z,506.00
2022-12-20T17:31:42.634Z,503.00
2022-12-20T17:32:42.571Z,506.00
2022-12-20T17:33:42.538Z,510.00
2022-12-20T17:34:42.542Z,508.00
2022-12-20T17:35:42.525Z,510.00
2022-12-20T17:36:42.514Z,513.00
2022-12-20T17:37:42.508Z,508.00
2022-12-20T17:38:42.490Z,510.00
2022-12-20T17:39:42.484Z,512.00
2022-12-20T17:40:42.483Z,510.00
2022-12-20T17:41:42.505Z,515.00
2022-12-20T17:42:42.482Z,515.00
2022-12-20T17:43:42.465Z,512.00
2022-12-20T17:44:42.468Z,515.00
2022-12-20T17:45:42.498Z,515.00
2022-12-20T17:46:42.460Z,515.00
2022-12-20T17:47:42.436Z,520.00
2022-12-20T17:48:44.124Z,521.00
2022-12-20T17:49:42.425Z,516.00
2022-12-20T17:50:42.423Z,516.00
2022-12-20T17:51:42.410Z,517.00
2022-12-20T17:52:42.400Z,518.00
2022-12-20T17:53:42.402Z,519.00
2022-12-20T17:54:42.401Z,516.00
2022-12-20T17:55:42.378Z,517.00
2022-12-20T17:56:42.371Z,516.00
2022-12-20T17:57:42.369Z,517.00
2022-12-20T17:58:42.357Z,519.00
2022-12-20T17:59:42.370Z,524.00
2022-12-20T18:00:42.345Z,523.00
2022-12-20T18:01:42.407Z,526.00
2022-12-20T18:02:42.431Z,528.00
2022-12-20T18:05:42.296Z,525.00
2022-12-20T18:06:42.284Z,525.00
2022-12-20T18:07:42.277Z,529.00
2022-12-20T18:08:42.262Z,532.00
2022-12-20T18:09:42.252Z,528.00
2022-12-20T18:10:42.257Z,532.00
2022-12-20T18:11:42.240Z,529.00
2022-12-20T18:12:42.225Z,529.00
2022-12-20T18:13:42.223Z,530.00
2022-12-20T18:14:42.249Z,531.00
2022-12-20T18:15:42.201Z,536.00
2022-12-20T18:16:42.277Z,535.00
2022-12-20T18:17:42.185Z,537.00
2022-12-20T18:18:42.197Z,539.00
2022-12-20T18:19:42.167Z,536.00
2022-12-20T18:20:42.164Z,538.00
2022-12-20T18:21:42.212Z,538.00
2022-12-20T18:22:42.140Z,534.00
2022-12-20T18:23:42.140Z,544.00
2022-12-20T18:24:42.131Z,540.00
2022-12-20T18:25:42.127Z,540.00
2022-12-20T18:26:42.126Z,540.00
2022-12-20T18:27:42.127Z,540.00
2022-12-20T18:28:42.118Z,540.00
2022-12-20T18:29:42.084Z,542.00
2022-12-20T18:30:42.078Z,541.00
2022-12-20T18:31:42.164Z,544.00
2022-12-20T18:32:42.063Z,543.00
2022-12-20T18:33:42.049Z,545.00
2022-12-20T18:34:42.057Z,548.00
2022-12-20T18:35:42.031Z,546.00
2022-12-20T18:37:42.028Z,545.00
2022-12-20T19:33:41.644Z,565.00
2022-12-20T19:34:41.651Z,566.00
2022-12-20T19:37:41.601Z,570.00
2022-12-20T19:38:41.583Z,569.00
2022-12-20T19:39:41.576Z,570.00
2022-12-20T19:40:41.562Z,571.00
2022-12-20T19:41:41.547Z,569.00
2022-12-20T19:42:41.532Z,570.00
2022-12-20T19:43:41.536Z,571.00
2022-12-20T19:44:41.515Z,569.00
2022-12-20T19:45:41.538Z,571.00
2022-12-20T19:46:41.561Z,569.00
2022-12-20T19:47:41.512Z,570.00
2022-12-20T19:48:41.477Z,573.00
2022-12-20T19:49:41.462Z,574.00
2022-12-20T19:50:41.457Z,571.00
2022-12-20T19:51:41.434Z,575.00
2022-12-20T19:52:41.426Z,572.00
2022-12-20T19:53:41.419Z,574.00
2022-12-20T19:54:41.411Z,575.00
2022-12-20T19:55:41.407Z,579.00
2022-12-20T19:56:41.391Z,576.00
2022-12-20T19:57:41.379Z,577.00
2022-12-20T19:58:41.353Z,577.00
2022-12-20T19:59:41.346Z,577.00
2022-12-20T20:00:41.343Z,577.00
2022-12-20T20:01:41.414Z,576.00
2022-12-20T20:02:41.596Z,575.00
2022-12-20T20:03:41.384Z,577.00
2022-12-20T20:04:41.285Z,576.00
2022-12-20T20:05:41.286Z,576.00
2022-12-20T20:06:41.278Z,579.00
2022-12-20T20:07:41.266Z,578.00
2022-12-20T20:08:41.251Z,576.00
2022-12-20T20:09:41.228Z,578.00
2022-12-20T20:10:41.215Z,578.00
2022-12-20T20:11:41.218Z,579.00
2022-12-20T20:12:41.195Z,581.00
2022-12-20T20:13:41.200Z,576.00
2022-12-20T20:14:41.155Z,577.00
2022-12-20T20:15:41.180Z,582.00
2022-12-20T20:16:41.216Z,578.00
2022-12-20T20:17:41.129Z,583.00
2022-12-20T20:18:41.126Z,582.00
2022-12-20T20:19:41.121Z,585.00
2022-12-20T20:20:41.112Z,580.00
2022-12-20T20:21:41.099Z,581.00
2022-12-20T20:22:41.100Z,582.00
2022-12-20T20:23:41.099Z,584.00
2022-12-20T20:24:41.079Z,582.00
2022-12-20T20:25:41.082Z,585.00
2022-12-20T20:26:41.049Z,588.00
2022-12-20T20:27:41.042Z,578.00
2022-12-20T20:28:45.447Z,584.00
2022-12-20T20:29:41.019Z,584.00
2022-12-20T20:30:41.064Z,584.00
2022-12-20T20:31:41.082Z,584.00
2022-12-20T20:32:41.022Z,583.00
2022-12-20T20:33:41.046Z,585.00
2022-12-20T20:34:40.961Z,584.00
2022-12-20T20:35:40.954Z,584.00
2022-12-20T20:36:40.937Z,584.00
2022-12-20T20:37:40.931Z,587.00
2022-12-20T20:38:40.926Z,588.00
2022-12-20T20:39:40.894Z,586.00
2022-12-20T20:40:40.898Z,589.00
2022-12-20T20:41:40.872Z,586.00
2022-12-20T20:42:40.859Z,589.00
2022-12-20T20:43:40.842Z,587.00
2022-12-20T20:44:40.835Z,590.00
2022-12-20T20:45:40.826Z,586.00
2022-12-20T20:46:40.840Z,588.00
2022-12-20T20:47:40.805Z,586.00
2022-12-20T20:48:40.774Z,585.00
2022-12-20T20:49:40.780Z,589.00
2022-12-20T20:50:40.753Z,586.00
2022-12-20T20:51:40.748Z,590.00
2022-12-20T20:52:40.744Z,587.00
2022-12-20T20:53:40.745Z,588.00
2022-12-20T20:54:40.715Z,587.00
2022-12-20T20:55:40.721Z,588.00
2022-12-20T20:56:40.697Z,587.00
2022-12-20T20:57:40.686Z,590.00
2022-12-20T20:58:40.677Z,589.00
2022-12-20T20:59:40.668Z,585.00
2022-12-20T21:00:40.663Z,588.00
2022-12-20T21:01:40.827Z,590.00
